Meteo Giornale » Osservazioni meteo Italia » Catania-Fontanarossa

ore: 04:20 - Osservazioni Meteo Catania-Fontanarossa
Lat. 37° 28' N Lon. 15° 3' E Alt. 11 metri s.l.m.

sereno Europe/Rome

24 °C

Sereno

Temp. 24 Ore

22 °C

34 °C

Nord

3.7 Km/h

Dew point 20 °C

Umidità 78 %

Visibilità  10 Km

Il sole sorge alle ore 05:57

Il sole tramonta alle ore 20:15

Data e Ora Cielo e Fenomeni T °C DP °C Um. % Pres. hPa Vis. km Vento km/h
Oggi h: 04:20 sereno Sereno 24 20 78 1006 10 N 3.7
Oggi h: 03:50 sereno Sereno 25 21 78 1007 10 N 1.8
Oggi h: 03:20 sereno Sereno 24 21 83 1007 10 N 3.7
Oggi h: 02:50 sereno Sereno 25 20 73 1007 10 N 5.5
Oggi h: 02:20 sereno Sereno 25 20 73 1007 10 N 1.8
Oggi h: 01:50 poco_nuvoloso Poco Nuvoloso 26 21 73 1007 10 N 1.8
Oggi h: 01:20 sereno Sereno 26 21 73 1008 10 N 3.7
Oggi h: 00:50 sereno Sereno 26 22 78 1008 10 N 5.5
Oggi h: 00:20 sereno Sereno 27 21 69 1008 10 N 1.8
Ieri h: 23:50 sereno Sereno 27 22 74 1008 10 S 7.4
Ieri h: 23:20 sereno Sereno 26 23 83 1008 10 N 5.5
Ieri h: 22:50 sereno Sereno 27 23 78 1008 10 N 1.8
Ieri h: 22:20 sereno Sereno 27 23 78 1009 10 N 5.5
Ieri h: 21:50 poco_nuvoloso Poco Nuvoloso 27 22 74 1008 8 N 3.7
Ieri h: 21:20 poco_nuvoloso Poco Nuvoloso 27 23 78 1008 8 N 3.7
Ieri h: 20:50 poco_nuvoloso Poco Nuvoloso 28 23 74 1008 10 N 7.4
Ieri h: 20:20 poco_nuvoloso Poco Nuvoloso 28 21 65 1008 8 E 9.3
Ieri h: 19:50 sereno Sereno 30 19 51 1008 10 E/NE 11.1
Ieri h: 19:20 sereno Sereno 30 19 51 1007 10 E/NE 18.5
Ieri h: 18:20 sereno Sereno 30 20 55 1007 10 E/NE 20.3
Ieri h: 17:50 sereno Sereno 31 19 48 1007 10 E/NE 16.7
Ieri h: 17:20 sereno Sereno 31 19 48 1008 10 E/NE 16.7
Ieri h: 16:50 sereno Sereno 32 19 46 1008 10 E/NE 18.5
Ieri h: 16:20 sereno Sereno 31 19 48 1008 10 E 18.5
Ieri h: 15:20 sereno Sereno 32 18 43 1009 10 E 14.8
Ieri h: 14:50 sereno Sereno 33 15 33 1009 10 E/SE 20.3
Ieri h: 14:20 sereno Sereno 33 13 29 1010 10 E/SE 16.7
Ieri h: 13:50 sereno Sereno 34 12 26 1010 10 E/SE 14.8
Ieri h: 13:20 sereno Sereno 34 14 30 1010 10 E/SE 13
Ieri h: 12:50 sereno Sereno 33 19 43 1011 10 SE 11.1
Ieri h: 12:20 nuvoloso Nuvoloso 32 20 49 1011 10 E/SE 9.3
Ieri h: 11:50 sereno Sereno 32 20 49 1011 10 S/SE 7.4
Ieri h: 11:20 sereno Sereno 31 21 55 1011 10 N 5.5
Ieri h: 10:50 sereno Sereno 30 21 58 1011 10 E/SE 13
Ieri h: 10:20 sereno Sereno 29 21 62 1011 10 E/SE 14.8
Ieri h: 09:50 sereno Sereno 31 19 48 1011 10 N 3.7
Ieri h: 09:20 sereno Sereno 30 19 51 1011 10 N 3.7
Ieri h: 08:50 sereno Sereno 29 20 58 1011 10 N 1.8
Ieri h: 08:20 sereno Sereno 28 21 65 1011 10 N 5.5
Ieri h: 07:50 sereno Sereno 27 21 69 1011 10 N 3.7
Ieri h: 07:20 sereno Sereno 25 21 78 1011 10 N 3.7
Ieri h: 06:50 sereno Sereno 25 21 78 1012 10 N 5.5
Ieri h: 06:20 sereno Sereno 23 16 64 1012 10 N 5.5
Ieri h: 05:50 sereno Sereno 22 16 68 1012 10 O/SO 9.3
Ieri h: 05:20 sereno Sereno 22 18 78 1012 10 N 7.4
Ieri h: 04:50 sereno Sereno 23 18 73 1012 10 N 3.7